createdAt,value
2022-11-01T00:00:39.452Z,12.92
2022-11-01T00:03:27.357Z,12.92
2022-11-01T00:05:55.413Z,12.90
2022-11-01T00:08:23.373Z,12.89
2022-11-01T00:10:51.389Z,12.91
2022-11-01T00:13:19.352Z,12.91
2022-11-01T00:15:47.264Z,12.92
2022-11-01T00:18:16.269Z,12.91
2022-11-01T00:20:44.287Z,12.89
2022-11-01T00:23:17.463Z,12.89
2022-11-01T00:25:45.764Z,12.87
2022-11-01T00:28:14.291Z,12.86
2022-11-01T00:30:42.822Z,12.86
2022-11-01T00:33:11.284Z,12.86
2022-11-01T00:35:40.135Z,12.89
2022-11-01T00:38:08.342Z,12.93
2022-11-01T00:40:36.725Z,12.99
2022-11-01T00:43:05.066Z,13.00
2022-11-01T00:45:33.379Z,12.99
2022-11-01T00:48:03.109Z,12.96
2022-11-01T00:50:33.558Z,13.01
2022-11-01T00:53:02.698Z,13.02
2022-11-01T00:55:31.382Z,13.04
2022-11-01T00:58:01.233Z,13.01
2022-11-01T01:00:29.950Z,13.00
2022-11-01T01:02:59.095Z,13.05
2022-11-01T01:05:28.434Z,13.07
2022-11-01T01:07:59.117Z,13.06
2022-11-01T01:10:32.677Z,13.01
2022-11-01T01:13:02.209Z,12.99
2022-11-01T01:15:31.335Z,12.94
2022-11-01T01:18:00.191Z,12.93
2022-11-01T01:20:28.571Z,12.84
2022-11-01T01:22:57.196Z,12.75
2022-11-01T01:25:52.572Z,12.71
2022-11-01T01:30:14.500Z,12.67
2022-11-01T01:32:45.769Z,12.65
2022-11-01T01:35:16.671Z,12.65
2022-11-01T01:37:48.713Z,12.53
2022-11-01T01:40:17.616Z,12.52
2022-11-01T01:42:48.453Z,12.45
2022-11-01T01:45:23.057Z,12.40
2022-11-01T01:47:54.671Z,12.29
2022-11-01T01:50:34.238Z,12.36
2022-11-01T01:53:03.656Z,12.33
2022-11-01T01:55:56.913Z,12.39
2022-11-01T01:58:30.632Z,12.38
2022-11-01T02:00:59.626Z,12.37
2022-11-01T02:03:32.259Z,12.34
2022-11-01T02:06:21.343Z,12.29
2022-11-01T02:08:58.492Z,12.23
2022-11-01T02:11:27.163Z,12.22
2022-11-01T02:13:58.723Z,12.23
2022-11-01T02:16:37.068Z,12.23
2022-11-01T02:19:38.802Z,12.19
2022-11-01T02:22:26.776Z,12.16
2022-11-01T02:25:33.589Z,12.21
2022-11-01T02:28:40.289Z,12.21
2022-11-01T02:31:47.887Z,12.23
2022-11-01T02:34:18.628Z,12.18
2022-11-01T02:37:00.377Z,12.18
2022-11-01T02:39:33.831Z,12.21
2022-11-01T02:42:28.880Z,12.22
2022-11-01T02:45:03.834Z,12.17
2022-11-01T02:51:00.606Z,12.02
2022-11-01T02:53:29.933Z,12.09
2022-11-01T02:56:01.107Z,12.09
2022-11-01T02:58:37.899Z,12.08
2022-11-01T03:01:16.872Z,12.15
2022-11-01T03:03:48.376Z,12.19
2022-11-01T03:10:23.508Z,12.27
2022-11-01T03:13:33.136Z,12.30
2022-11-01T03:16:51.787Z,12.35
2022-11-01T03:20:19.389Z,12.32
2022-11-01T03:23:12.574Z,12.30
2022-11-01T03:30:31.174Z,12.22
2022-11-01T03:36:45.017Z,12.21
2022-11-01T03:39:42.941Z,12.23
2022-11-01T03:42:24.700Z,12.29
2022-11-01T03:45:21.688Z,12.25
2022-11-01T03:49:49.567Z,12.29
2022-11-01T03:56:42.130Z,12.35
2022-11-01T04:02:44.261Z,12.43
2022-11-01T04:08:46.573Z,12.51
2022-11-01T04:11:23.288Z,12.53
2022-11-01T04:13:52.230Z,12.53
2022-11-01T04:16:40.519Z,12.54
2022-11-01T04:19:33.327Z,12.54
2022-11-01T04:22:23.663Z,12.54
2022-11-01T04:25:18.439Z,12.54
2022-11-01T04:27:49.498Z,12.54
2022-11-01T04:30:31.448Z,12.46
2022-11-01T04:33:01.537Z,12.51
2022-11-01T04:39:57.924Z,12.47
2022-11-01T04:46:10.937Z,12.43
2022-11-01T04:48:38.966Z,12.45
2022-11-01T04:51:08.426Z,12.45
2022-11-01T04:53:55.916Z,12.42
2022-11-01T04:56:54.127Z,12.39
2022-11-01T04:59:29.812Z,12.36
2022-11-01T05:02:35.107Z,12.41
2022-11-01T05:05:08.341Z,12.44
2022-11-01T05:07:37.089Z,12.43
2022-11-01T05:10:07.153Z,12.39
2022-11-01T05:12:37.592Z,12.36
2022-11-01T05:15:08.297Z,12.42
2022-11-01T05:23:59.377Z,12.76
2022-11-01T05:26:38.272Z,12.95
2022-11-01T05:29:32.882Z,13.30
2022-11-01T05:32:09.076Z,13.95
2022-11-01T05:34:53.947Z,14.77
2022-11-01T05:37:27.146Z,15.46
2022-11-01T05:39:59.173Z,16.13
2022-11-01T05:42:27.758Z,16.58
2022-11-01T05:44:56.950Z,16.90
2022-11-01T05:47:40.325Z,17.32
2022-11-01T05:57:02.583Z,20.22
2022-11-01T05:59:45.503Z,20.92
2022-11-01T06:02:18.147Z,21.58
2022-11-01T06:04:46.868Z,22.16
2022-11-01T06:07:15.879Z,23.20
2022-11-01T06:09:46.624Z,24.14
2022-11-01T06:14:25.883Z,24.99
2022-11-01T06:20:56.086Z,27.56
2022-11-01T06:23:24.919Z,28.56
2022-11-01T06:26:01.960Z,29.23
2022-11-01T06:28:30.068Z,29.75
2022-11-01T06:31:02.619Z,30.34
2022-11-01T06:33:31.139Z,31.02
2022-11-01T06:36:00.187Z,31.75
2022-11-01T06:38:28.096Z,32.44
2022-11-01T06:40:55.963Z,33.02
2022-11-01T06:43:23.743Z,33.61
2022-11-01T06:45:51.443Z,34.10
2022-11-01T06:48:19.121Z,34.67
2022-11-01T06:50:46.892Z,35.38
2022-11-01T06:53:14.812Z,35.70
2022-11-01T06:55:42.456Z,36.01
2022-11-01T06:58:10.785Z,36.20
2022-11-01T07:00:38.560Z,36.00
2022-11-01T07:03:07.511Z,36.49
2022-11-01T07:05:37.481Z,36.95
2022-11-01T07:08:06.856Z,37.24
2022-11-01T07:10:35.762Z,37.61
2022-11-01T07:13:04.444Z,37.62
2022-11-01T07:15:32.437Z,37.03
2022-11-01T07:18:01.328Z,37.36
2022-11-01T07:20:30.398Z,37.75
2022-11-01T07:23:02.983Z,37.78
2022-11-01T07:25:31.557Z,36.96
2022-11-01T07:27:59.948Z,37.00
2022-11-01T07:30:28.344Z,37.68
2022-11-01T07:32:56.965Z,38.22
2022-11-01T07:35:25.864Z,38.32
2022-11-01T07:37:57.188Z,38.56
2022-11-01T07:40:28.060Z,38.75
2022-11-01T07:42:56.970Z,38.92
2022-11-01T07:45:25.428Z,39.08
2022-11-01T07:47:53.586Z,39.34
2022-11-01T07:50:21.282Z,39.96
2022-11-01T07:52:49.115Z,40.44
2022-11-01T07:55:16.831Z,40.78
2022-11-01T07:57:45.902Z,41.05
2022-11-01T08:00:13.909Z,41.36
2022-11-01T08:02:41.776Z,41.09
2022-11-01T08:05:11.050Z,41.10
2022-11-01T08:07:40.065Z,40.42
2022-11-01T08:10:08.958Z,39.56
2022-11-01T08:12:36.702Z,39.36
2022-11-01T08:15:05.452Z,39.41
2022-11-01T08:17:33.540Z,39.73
2022-11-01T08:20:01.528Z,39.22
2022-11-01T08:22:29.342Z,38.11
2022-11-01T08:24:57.182Z,38.40
2022-11-01T08:27:25.089Z,38.92
2022-11-01T08:29:52.887Z,39.55
2022-11-01T08:32:21.690Z,40.42
2022-11-01T08:34:49.414Z,41.11
2022-11-01T08:37:18.812Z,41.63
2022-11-01T08:39:46.656Z,42.28
2022-11-01T08:42:14.460Z,42.57
2022-11-01T08:44:42.279Z,42.59
2022-11-01T08:47:10.154Z,42.30
2022-11-01T08:49:38.028Z,42.58
2022-11-01T08:52:06.234Z,43.20
2022-11-01T08:54:34.455Z,43.84
2022-11-01T08:57:05.098Z,44.05
2022-11-01T08:59:33.204Z,44.16
2022-11-01T09:02:01.110Z,44.34
2022-11-01T09:04:28.986Z,44.66
2022-11-01T09:06:56.794Z,44.64
2022-11-01T09:09:24.771Z,44.31
2022-11-01T09:11:52.983Z,44.07
2022-11-01T09:14:24.046Z,44.32
2022-11-01T09:16:52.425Z,44.49
2022-11-01T09:19:20.176Z,44.67
2022-11-01T09:21:48.767Z,44.68
2022-11-01T09:24:17.146Z,44.68
2022-11-01T09:26:44.907Z,44.65
2022-11-01T09:29:12.800Z,44.70
2022-11-01T09:31:40.601Z,44.78
2022-11-01T09:34:08.338Z,44.82
2022-11-01T09:36:36.070Z,44.73
2022-11-01T09:39:03.911Z,44.35
2022-11-01T09:41:31.975Z,43.49
2022-11-01T09:44:01.859Z,43.14
2022-11-01T09:46:32.562Z,43.12
2022-11-01T09:49:02.476Z,43.24
2022-11-01T09:51:30.494Z,42.96
2022-11-01T09:54:01.368Z,42.05
2022-11-01T09:56:32.235Z,42.03
2022-11-01T09:59:32.690Z,42.37
2022-11-01T10:02:15.561Z,42.89
2022-11-01T10:05:04.021Z,42.65
2022-11-01T10:07:50.753Z,41.88
2022-11-01T10:10:24.614Z,41.45
2022-11-01T10:12:52.367Z,41.49
2022-11-01T10:15:20.262Z,41.57
2022-11-01T10:17:52.447Z,41.59
2022-11-01T10:20:33.327Z,40.74
2022-11-01T10:23:03.200Z,39.96
2022-11-01T10:25:33.546Z,39.42
2022-11-01T10:28:19.601Z,39.20
2022-11-01T10:30:50.705Z,39.52
2022-11-01T10:33:25.816Z,39.88
2022-11-01T10:35:59.184Z,40.13
2022-11-01T10:38:59.139Z,40.03
2022-11-01T10:41:28.846Z,39.70
2022-11-01T10:43:58.399Z,39.09
2022-11-01T10:46:29.420Z,38.43
2022-11-01T10:49:00.567Z,37.87
2022-11-01T10:51:29.844Z,37.50
2022-11-01T10:54:00.165Z,37.22
2022-11-01T10:56:29.772Z,36.99
2022-11-01T10:59:00.782Z,36.73
2022-11-01T11:01:30.744Z,36.45
2022-11-01T11:04:02.783Z,36.10
2022-11-01T11:06:39.078Z,35.49
2022-11-01T11:09:07.424Z,34.90
2022-11-01T11:11:36.847Z,33.99
2022-11-01T11:14:06.047Z,33.18
2022-11-01T11:16:47.013Z,32.28
2022-11-01T11:19:19.374Z,31.90
2022-11-01T11:21:48.996Z,31.59
2022-11-01T11:24:21.713Z,30.88
2022-11-01T11:26:54.151Z,30.59
2022-11-01T11:29:25.543Z,30.40
2022-11-01T11:31:59.183Z,30.19
2022-11-01T11:34:28.955Z,30.01
2022-11-01T11:36:57.575Z,29.98
2022-11-01T11:39:30.477Z,29.70
2022-11-01T11:42:19.173Z,29.51
2022-11-01T11:44:51.953Z,29.22
2022-11-01T11:47:36.658Z,29.02
2022-11-01T11:50:24.516Z,28.71
2022-11-01T11:53:00.324Z,28.36
2022-11-01T11:55:38.167Z,28.06
2022-11-01T11:58:14.570Z,27.95
2022-11-01T12:00:43.824Z,27.71
2022-11-01T12:03:14.525Z,27.51
2022-11-01T12:05:51.865Z,27.30
2022-11-01T12:08:31.613Z,27.22
2022-11-01T12:10:59.867Z,27.15
2022-11-01T12:13:36.989Z,27.02
2022-11-01T12:16:22.372Z,26.90
2022-11-01T12:19:11.558Z,26.89
2022-11-01T12:21:42.364Z,26.87
2022-11-01T12:24:32.012Z,26.64
2022-11-01T12:27:04.885Z,26.53
2022-11-01T12:29:53.080Z,26.42
2022-11-01T12:32:23.957Z,26.32
2022-11-01T12:35:39.172Z,26.31
2022-11-01T12:38:26.970Z,26.35
2022-11-01T12:40:55.631Z,26.18
2022-11-01T12:43:29.538Z,26.05
2022-11-01T12:46:01.204Z,26.00
2022-11-01T12:48:31.585Z,25.86
2022-11-01T12:51:32.511Z,25.57
2022-11-01T12:54:00.537Z,25.42
2022-11-01T12:56:28.445Z,25.30
2022-11-01T12:58:57.025Z,25.10
2022-11-01T13:01:38.299Z,25.00
2022-11-01T13:04:13.430Z,24.92
2022-11-01T13:06:59.861Z,24.96
2022-11-01T13:13:47.651Z,24.96
2022-11-01T13:16:24.440Z,24.85
2022-11-01T13:18:58.410Z,24.51
2022-11-01T13:21:43.722Z,24.41
2022-11-01T13:24:23.915Z,24.34
2022-11-01T13:26:57.390Z,24.33
2022-11-01T13:29:36.136Z,24.30
2022-11-01T13:36:18.532Z,24.40
2022-11-01T13:39:05.049Z,24.33
2022-11-01T13:41:43.718Z,24.21
2022-11-01T13:48:15.936Z,24.22
2022-11-01T13:50:55.101Z,24.00
2022-11-01T13:53:35.906Z,23.89
2022-11-01T13:56:26.621Z,23.87
2022-11-01T13:58:54.986Z,23.85
2022-11-01T14:01:26.310Z,23.69
2022-11-01T14:04:13.392Z,23.64
2022-11-01T14:06:42.375Z,23.62
2022-11-01T14:09:30.019Z,23.64
2022-11-01T14:12:07.917Z,23.64
2022-11-01T14:23:28.453Z,23.53
2022-11-01T14:26:15.339Z,23.43
2022-11-01T14:28:48.975Z,23.43
2022-11-01T14:31:20.233Z,23.35
2022-11-01T14:33:49.069Z,23.29
2022-11-01T14:36:20.257Z,23.13
2022-11-01T14:38:54.272Z,23.04
2022-11-01T14:41:28.327Z,22.95
2022-11-01T14:44:12.013Z,22.81
2022-11-01T14:46:52.708Z,22.78
2022-11-01T14:49:41.288Z,22.72
2022-11-01T14:52:17.591Z,22.63
2022-11-01T14:55:00.549Z,22.55
2022-11-01T14:57:29.744Z,22.46
2022-11-01T14:59:58.272Z,22.36
2022-11-01T15:02:28.152Z,22.25
2022-11-01T15:05:00.205Z,22.12
2022-11-01T15:07:31.389Z,22.01
2022-11-01T15:10:04.811Z,21.91
2022-11-01T15:12:51.335Z,21.79
2022-11-01T15:15:21.207Z,21.65
2022-11-01T15:17:54.229Z,21.39
2022-11-01T15:20:23.547Z,21.16
2022-11-01T15:22:54.177Z,21.01
2022-11-01T15:25:24.000Z,20.86
2022-11-01T15:27:52.020Z,20.67
2022-11-01T15:30:23.034Z,20.30
2022-11-01T15:32:54.103Z,19.90
2022-11-01T15:35:26.083Z,19.69
2022-11-01T15:37:54.655Z,19.61
2022-11-01T15:40:34.830Z,19.49
2022-11-01T15:43:04.143Z,19.27
2022-11-01T15:45:33.616Z,18.95
2022-11-01T15:48:24.150Z,18.79
2022-11-01T15:50:54.746Z,18.72
2022-11-01T15:53:24.927Z,18.67
2022-11-01T15:55:55.275Z,18.60
2022-11-01T15:58:26.635Z,18.53
2022-11-01T16:00:59.302Z,18.45
2022-11-01T16:03:36.704Z,18.39
2022-11-01T16:06:07.131Z,18.31
2022-11-01T16:08:37.556Z,18.22
2022-11-01T16:11:05.636Z,18.11
2022-11-01T16:13:33.879Z,17.98
2022-11-01T16:16:06.459Z,17.84
2022-11-01T16:18:39.276Z,17.69
2022-11-01T16:21:19.289Z,17.53
2022-11-01T16:23:59.209Z,17.38
2022-11-01T16:26:27.529Z,17.28
2022-11-01T16:28:56.004Z,17.20
2022-11-01T16:31:26.535Z,17.14
2022-11-01T16:33:55.021Z,17.06
2022-11-01T16:36:34.053Z,16.97
2022-11-01T16:39:01.909Z,16.89
2022-11-01T16:41:36.356Z,16.80
2022-11-01T16:44:15.923Z,16.72
2022-11-01T16:46:44.499Z,16.62
2022-11-01T16:49:15.205Z,16.53
2022-11-01T16:51:42.854Z,16.46
2022-11-01T16:54:10.756Z,16.40
2022-11-01T16:56:41.519Z,16.33
2022-11-01T16:59:32.560Z,16.26
2022-11-01T17:02:01.295Z,16.17
2022-11-01T17:04:29.683Z,16.06
2022-11-01T17:07:00.272Z,15.95
2022-11-01T17:09:29.447Z,15.87
2022-11-01T17:11:57.137Z,15.78
2022-11-01T17:14:24.897Z,15.71
2022-11-01T17:16:52.827Z,15.61
2022-11-01T17:19:23.436Z,15.54
2022-11-01T17:21:52.445Z,15.45
2022-11-01T17:24:22.553Z,15.30
2022-11-01T17:26:51.759Z,15.10
2022-11-01T17:29:19.918Z,15.02
2022-11-01T17:31:48.233Z,14.98
2022-11-01T17:34:16.614Z,14.97
2022-11-01T17:36:47.242Z,14.95
2022-11-01T17:39:15.164Z,14.88
2022-11-01T17:41:43.060Z,14.80
2022-11-01T17:44:12.135Z,14.76
2022-11-01T17:46:40.057Z,14.73
2022-11-01T17:49:09.917Z,14.70
2022-11-01T17:51:37.733Z,14.66
2022-11-01T17:54:05.494Z,14.62
2022-11-01T17:56:33.408Z,14.59
2022-11-01T17:59:01.693Z,14.55
2022-11-01T18:01:30.437Z,14.53
2022-11-01T18:03:58.453Z,14.51
2022-11-01T18:06:27.015Z,14.48
2022-11-01T18:08:54.748Z,14.41
2022-11-01T18:11:41.194Z,14.35
2022-11-01T18:14:15.011Z,14.32
2022-11-01T18:16:47.528Z,14.30
2022-11-01T18:19:21.719Z,14.28
2022-11-01T18:22:09.050Z,14.27
2022-11-01T18:24:42.652Z,14.22
2022-11-01T18:27:11.852Z,14.17
2022-11-01T18:29:41.200Z,14.12
2022-11-01T18:32:32.015Z,14.06
2022-11-01T18:35:02.966Z,14.03
2022-11-01T18:37:55.942Z,13.97
2022-11-01T18:40:30.660Z,13.90
2022-11-01T18:42:58.344Z,13.84
2022-11-01T18:45:31.852Z,13.76
2022-11-01T18:48:12.735Z,13.72
2022-11-01T18:50:40.554Z,13.69
2022-11-01T18:53:08.501Z,13.63
2022-11-01T18:55:36.737Z,13.58
2022-11-01T18:58:21.171Z,13.56
2022-11-01T19:00:58.190Z,13.55
2022-11-01T19:03:28.259Z,13.51
2022-11-01T19:06:10.844Z,13.45
2022-11-01T19:08:39.512Z,13.40
2022-11-01T19:11:10.816Z,13.36
2022-11-01T19:13:38.623Z,13.33
2022-11-01T19:16:10.971Z,13.32
2022-11-01T19:18:42.295Z,13.31
2022-11-01T19:21:14.617Z,13.28
2022-11-01T19:23:45.084Z,13.27
2022-11-01T19:26:21.802Z,13.26
2022-11-01T19:28:52.409Z,13.22
2022-11-01T19:31:33.118Z,13.17
2022-11-01T19:34:03.575Z,13.13
2022-11-01T19:39:24.096Z,13.07
2022-11-01T19:41:53.190Z,13.03
2022-11-01T19:44:25.146Z,12.98
2022-11-01T19:46:59.854Z,12.95
2022-11-01T19:49:31.752Z,12.92
2022-11-01T19:52:02.605Z,12.89
2022-11-01T19:54:35.461Z,12.87
2022-11-01T19:57:20.429Z,12.86
2022-11-01T19:59:48.198Z,12.84
2022-11-01T20:02:19.484Z,12.81
2022-11-01T20:04:51.881Z,12.77
2022-11-01T20:07:20.560Z,12.73
2022-11-01T20:09:48.890Z,12.71
2022-11-01T20:12:21.888Z,12.65
2022-11-01T20:14:49.948Z,12.64
2022-11-01T20:17:17.691Z,12.61
2022-11-01T20:19:45.420Z,12.59
2022-11-01T20:22:13.262Z,12.57
2022-11-01T20:24:40.921Z,12.57
2022-11-01T20:27:08.703Z,12.58
2022-11-01T20:29:37.230Z,12.57
2022-11-01T20:32:06.030Z,12.56
2022-11-01T20:34:33.673Z,12.55
2022-11-01T20:37:27.040Z,12.52
2022-11-01T20:39:49.843Z,12.51
2022-11-01T20:42:17.562Z,12.46
2022-11-01T20:44:45.256Z,12.41
2022-11-01T20:50:15.512Z,12.32
2022-11-01T20:53:04.507Z,12.30
2022-11-01T20:55:35.420Z,12.12
2022-11-01T20:58:10.284Z,12.06
2022-11-01T21:00:39.054Z,12.09
2022-11-01T21:03:16.748Z,12.10
2022-11-01T21:05:45.623Z,12.07
2022-11-01T21:08:25.132Z,12.04
2022-11-01T21:11:02.555Z,12.03
2022-11-01T21:13:35.564Z,12.04
2022-11-01T21:16:04.202Z,12.03
2022-11-01T21:18:45.884Z,12.02
2022-11-01T21:21:14.002Z,12.00
2022-11-01T21:23:49.796Z,11.97
2022-11-01T21:26:27.260Z,11.96
2022-11-01T21:29:03.264Z,11.94
2022-11-01T21:31:41.499Z,11.93
2022-11-01T21:34:17.343Z,11.94
2022-11-01T21:36:55.569Z,11.94
2022-11-01T21:39:34.972Z,11.90
2022-11-01T21:42:05.203Z,11.86
2022-11-01T21:44:55.734Z,11.83
2022-11-01T21:47:29.084Z,11.78
2022-11-01T21:50:07.506Z,11.74
2022-11-01T21:52:40.140Z,11.70
2022-11-01T21:55:18.670Z,11.65
2022-11-01T21:58:02.325Z,11.54
2022-11-01T22:00:31.803Z,11.44
2022-11-01T22:03:11.539Z,11.39
2022-11-01T22:08:51.846Z,11.37
2022-11-01T22:14:20.010Z,11.42
2022-11-01T22:17:01.396Z,11.43
2022-11-01T22:22:55.729Z,11.43
2022-11-01T22:26:06.718Z,11.50
2022-11-01T22:28:35.669Z,11.52
2022-11-01T22:31:04.280Z,11.53
2022-11-01T22:33:33.295Z,11.52
2022-11-01T22:36:10.549Z,11.50
2022-11-01T22:38:47.599Z,11.47
2022-11-01T22:41:32.739Z,11.42
2022-11-01T22:44:14.149Z,11.41
2022-11-01T22:46:51.238Z,11.41
2022-11-01T22:49:31.831Z,11.39
2022-11-01T22:51:59.769Z,11.38
2022-11-01T22:54:27.655Z,11.37
2022-11-01T22:57:01.647Z,11.34
2022-11-01T22:59:33.496Z,11.31
2022-11-01T23:02:46.143Z,11.25
2022-11-01T23:05:28.240Z,11.19
2022-11-01T23:07:58.381Z,11.16
2022-11-01T23:15:02.994Z,11.02
2022-11-01T23:17:37.929Z,11.05
2022-11-01T23:20:21.364Z,11.02
2022-11-01T23:22:55.569Z,11.00
2022-11-01T23:25:30.312Z,10.98
2022-11-01T23:31:46.507Z,10.91
2022-11-01T23:34:20.280Z,10.89
2022-11-01T23:40:56.738Z,10.83
2022-11-01T23:43:41.467Z,10.80
2022-11-01T23:46:10.483Z,10.63
2022-11-01T23:48:43.214Z,10.63
2022-11-01T23:51:16.965Z,10.63
2022-11-01T23:53:45.553Z,10.62
2022-11-01T23:56:14.511Z,10.58
2022-11-01T23:58:42.368Z,10.53
